Time;durP1;ratioP1;P1;durP2;ratioP2;P2;SDS_P1;SDS_P2;PMS_P1;PMS_P2;Temp;Humidity;BMP_temperature;BMP_pressure;BME280_temperature;BME280_humidity;BME280_pressure;Samples;Min_cycle;Max_cycle;Signal;HPM_P1;HPM_P2
2021/06/09 00:01:29;;;;;;;6.93;4.57;;;14.20;1.00;;;;;;5136238;27;20646;-71
2021/06/09 00:04:15;;;;;;;8.27;4.33;;;14.20;1.00;;;;;;5134671;27;20198;-71
2021/06/09 00:07:04;;;;;;;6.77;5.00;;;14.20;1.00;;;;;;5133349;27;20207;-71
2021/06/09 00:09:51;;;;;;;7.43;4.53;;;14.20;1.00;;;;;;5134346;27;20272;-71
2021/06/09 00:12:41;;;;;;;12.30;4.87;;;14.10;1.00;;;;;;5133397;27;20610;-71
2021/06/09 00:15:28;;;;;;;7.80;4.63;;;14.10;1.00;;;;;;5134460;27;20222;-71
2021/06/09 00:18:15;;;;;;;12.03;5.20;;;14.10;1.00;;;;;;5133709;27;20242;-71
2021/06/09 00:21:02;;;;;;;7.80;4.93;;;14.10;1.00;;;;;;5134268;27;20235;-71
2021/06/09 00:23:51;;;;;;;7.80;5.00;;;14.10;1.00;;;;;;5134968;27;20205;-71
2021/06/09 00:26:38;;;;;;;8.23;5.00;;;14.10;1.00;;;;;;5134923;27;20199;-71
2021/06/09 00:29:25;;;;;;;10.90;5.00;;;14.10;1.00;;;;;;5134092;27;20218;-71
2021/06/09 00:32:12;;;;;;;7.93;4.83;;;14.20;1.00;;;;;;5133540;27;20199;-71
2021/06/09 00:34:59;;;;;;;7.37;5.30;;;14.20;1.00;;;;;;5132575;27;20207;-71
2021/06/09 00:37:46;;;;;;;8.47;5.60;;;14.20;1.00;;;;;;5134634;27;20574;-71
2021/06/09 00:40:35;;;;;;;12.37;4.93;;;14.20;1.00;;;;;;5134538;27;20221;-71
2021/06/09 00:43:22;;;;;;;8.93;5.50;;;14.20;1.00;;;;;;5133002;27;20239;-71
2021/06/09 00:46:10;;;;;;;12.27;5.47;;;14.20;1.00;;;;;;5134756;27;20260;-71
2021/06/09 00:48:58;;;;;;;8.80;5.50;;;14.20;1.00;;;;;;5133119;27;20280;-71
2021/06/09 00:51:44;;;;;;;12.30;5.90;;;14.20;1.00;;;;;;5133818;27;20210;-71
2021/06/09 00:54:32;;;;;;;7.40;5.00;;;14.30;1.00;;;;;;5136104;27;20298;-71
2021/06/09 00:57:21;;;;;;;8.63;5.50;;;14.30;1.00;;;;;;5155470;27;20197;-71
2021/06/09 01:00:09;;;;;;;7.37;5.33;;;14.30;1.00;;;;;;5136450;27;20300;-71
2021/06/09 01:02:56;;;;;;;10.20;5.83;;;14.30;1.00;;;;;;5154550;27;20699;-71
2021/06/09 01:05:44;;;;;;;9.13;5.50;;;14.40;1.00;;;;;;5154562;27;20216;-71
2021/06/09 01:08:33;;;;;;;10.60;5.80;;;14.30;1.00;;;;;;5154434;27;20198;-71
2021/06/09 01:11:23;;;;;;;10.80;5.83;;;14.30;1.00;;;;;;5153962;27;20189;-71
2021/06/09 01:14:12;;;;;;;7.07;5.30;;;14.30;1.00;;;;;;5153109;27;20741;-71
2021/06/09 01:16:59;;;;;;;9.20;5.60;;;14.30;1.00;;;;;;5153856;27;20199;-71
2021/06/09 01:19:47;;;;;;;9.97;6.17;;;14.20;1.00;;;;;;5154052;27;20220;-71
2021/06/09 01:22:36;;;;;;;7.23;6.00;;;14.20;1.00;;;;;;5154756;27;20260;-71
2021/06/09 01:25:23;;;;;;;10.13;5.80;;;14.20;1.00;;;;;;5153930;27;20196;-71
2021/06/09 01:28:10;;;;;;;9.57;5.30;;;14.20;1.00;;;;;;5154042;27;20659;-71
2021/06/09 01:30:57;;;;;;;8.40;5.90;;;14.20;1.00;;;;;;5153997;27;20187;-71
2021/06/09 01:33:44;;;;;;;12.87;6.27;;;14.30;1.00;;;;;;5154804;27;20327;-71
2021/06/09 01:36:32;;;;;;;8.67;6.23;;;14.30;1.00;;;;;;5153983;27;20644;-71
2021/06/09 01:39:21;;;;;;;8.07;5.70;;;14.30;1.00;;;;;;5153883;27;20220;-71
2021/06/09 01:42:08;;;;;;;9.30;5.77;;;14.30;1.00;;;;;;5154393;27;20644;-71
2021/06/09 01:44:55;;;;;;;7.87;5.77;;;14.20;1.00;;;;;;5155609;27;20546;-73
2021/06/09 01:47:42;;;;;;;10.30;6.50;;;14.20;1.00;;;;;;5154335;27;20313;-73
2021/06/09 01:50:29;;;;;;;15.27;6.63;;;14.20;1.00;;;;;;5158373;27;20198;-73
2021/06/09 01:53:16;;;;;;;10.50;6.27;;;14.20;1.00;;;;;;5158891;27;20288;-73
2021/06/09 01:56:04;;;;;;;8.77;6.00;;;14.20;1.00;;;;;;5158900;27;20199;-73
2021/06/09 01:58:51;;;;;;;9.57;5.57;;;14.20;1.00;;;;;;5158272;27;20592;-73
2021/06/09 02:01:38;;;;;;;6.97;5.47;;;14.30;1.00;;;;;;5158249;27;20197;-73
2021/06/09 02:04:25;;;;;;;11.80;6.50;;;14.30;1.00;;;;;;5158426;27;20279;-73
2021/06/09 02:07:12;;;;;;;10.47;6.07;;;14.30;1.00;;;;;;5157485;27;20280;-73
2021/06/09 02:09:59;;;;;;;10.97;6.47;;;14.20;1.00;;;;;;5157979;27;20195;-73
2021/06/09 02:12:50;;;;;;;13.37;6.70;;;14.20;1.00;;;;;;5158236;27;20277;-73
2021/06/09 02:15:37;;;;;;;12.40;6.60;;;14.10;1.00;;;;;;5158146;27;20289;-73
2021/06/09 02:18:25;;;;;;;9.87;6.53;;;14.10;1.00;;;;;;5157949;27;20196;-73
2021/06/09 02:21:12;;;;;;;13.17;6.37;;;14.10;4.80;;;;;;5157108;27;20576;-73
2021/06/09 02:24:02;;;;;;;10.43;6.63;;;14.10;9.80;;;;;;5157474;27;20199;-72
2021/06/09 02:26:50;;;;;;;9.57;6.80;;;14.10;6.30;;;;;;5157396;27;20209;-72
2021/06/09 02:29:38;;;;;;;12.13;7.10;;;14.10;6.00;;;;;;5157254;27;20280;-72
2021/06/09 02:32:25;;;;;;;14.87;6.93;;;14.10;1.20;;;;;;5158147;27;20553;-72
2021/06/09 02:35:13;;;;;;;11.70;6.93;;;14.10;1.00;;;;;;5158416;27;20209;-72
2021/06/09 02:38:01;;;;;;;11.03;6.97;;;14.00;1.00;;;;;;5157864;27;20193;-72
2021/06/09 02:40:49;;;;;;;15.90;7.23;;;14.00;1.00;;;;;;5157173;27;20667;-72
2021/06/09 02:43:36;;;;;;;14.13;7.00;;;14.00;1.00;;;;;;5158765;27;20231;-72
2021/06/09 02:46:26;;;;;;;12.07;7.67;;;13.90;1.00;;;;;;5158191;27;20693;-73
2021/06/09 02:49:13;;;;;;;14.93;7.27;;;13.90;1.00;;;;;;5157622;27;20277;-72
2021/06/09 02:52:05;;;;;;;9.73;7.10;;;13.90;11.20;;;;;;5156795;27;20643;-72
2021/06/09 02:54:54;;;;;;;14.97;7.57;;;13.90;10.40;;;;;;5157113;27;20225;-72
2021/06/09 02:57:45;;;;;;;10.30;7.03;;;14.00;8.50;;;;;;5157317;27;20221;-72
2021/06/09 03:00:36;;;;;;;11.03;7.33;;;14.00;5.20;;;;;;5156596;27;20350;-72
2021/06/09 03:03:26;;;;;;;10.20;7.33;;;14.00;13.60;;;;;;5157498;27;20284;-72
2021/06/09 03:06:20;;;;;;;16.33;7.43;;;14.10;11.10;;;;;;5156936;27;20205;-72
2021/06/09 03:09:08;;;;;;;15.70;8.00;;;14.20;14.50;;;;;;5157004;27;20296;-72
2021/06/09 03:11:58;;;;;;;20.03;7.63;;;14.20;14.30;;;;;;5157011;27;20196;-72
2021/06/09 03:17:54;;;;;;;12.23;7.73;;;14.30;16.00;;;;;;5156594;27;20651;-72
2021/06/09 03:20:47;;;;;;;12.33;7.83;;;14.40;13.90;;;;;;5156562;27;20213;-72
2021/06/09 03:23:44;;;;;;;12.37;7.57;;;14.50;11.10;;;;;;5156760;27;20195;-72
2021/06/09 03:26:44;;;;;;;17.97;7.37;;;14.40;9.80;;;;;;5156765;27;20201;-72
2021/06/09 03:29:34;;;;;;;17.60;7.47;;;14.50;8.30;;;;;;5156497;27;20249;-72
2021/06/09 03:32:25;;;;;;;14.97;7.50;;;14.50;8.80;;;;;;5156548;27;20205;-72
2021/06/09 03:35:14;;;;;;;14.67;7.90;;;14.60;10.00;;;;;;5157027;27;20630;-72
2021/06/09 03:38:04;;;;;;;11.13;7.23;;;14.60;7.50;;;;;;5155743;27;20282;-72
2021/06/09 03:40:54;;;;;;;13.40;8.07;;;14.60;9.60;;;;;;5156806;27;20206;-72
2021/06/09 03:43:41;;;;;;;12.67;7.80;;;14.60;13.10;;;;;;5156060;27;20225;-72
2021/06/09 03:46:28;;;;;;;14.80;7.83;;;14.70;12.60;;;;;;5155727;27;20689;-72
2021/06/09 03:49:16;;;;;;;11.07;7.70;;;14.70;13.80;;;;;;5155722;27;20198;-72
2021/06/09 03:52:03;;;;;;;14.37;7.40;;;14.80;13.80;;;;;;5154642;27;20249;-72
2021/06/09 03:54:57;;;;;;;15.00;7.60;;;14.70;11.60;;;;;;5156063;27;20258;-72
2021/06/09 03:57:44;;;;;;;11.80;7.27;;;14.80;14.60;;;;;;5156632;27;20591;-72
2021/06/09 04:00:31;;;;;;;14.17;8.13;;;14.90;12.80;;;;;;5155433;27;20250;-72
2021/06/09 04:03:19;;;;;;;9.87;7.17;;;14.90;19.20;;;;;;5155638;27;20209;-72
2021/06/09 04:06:06;;;;;;;11.13;7.07;;;15.00;20.60;;;;;;5155868;27;20206;-72
2021/06/09 04:08:53;;;;;;;14.70;7.40;;;15.10;19.40;;;;;;5155779;27;20198;-72
2021/06/09 04:11:41;;;;;;;11.90;7.57;;;15.20;17.60;;;;;;5154812;27;20202;-72
2021/06/09 04:14:32;;;;;;;14.57;7.87;;;15.10;4.30;;;;;;5155102;27;20206;-72
2021/06/09 04:17:21;;;;;;;15.63;9.00;;;15.00;1.00;;;;;;5155632;27;20194;-72
2021/06/09 04:20:08;;;;;;;16.50;10.40;;;15.00;1.00;;;;;;5155281;27;20232;-72
2021/06/09 04:22:55;;;;;;;20.43;10.90;;;14.90;1.00;;;;;;5155312;27;20195;-72
2021/06/09 04:25:43;;;;;;;21.30;10.87;;;15.00;2.50;;;;;;5155499;27;20193;-72
2021/06/09 04:28:31;;;;;;;21.63;10.13;;;15.00;3.00;;;;;;5155048;27;20218;-72
2021/06/09 04:31:18;;;;;;;20.50;11.07;;;15.10;2.20;;;;;;5156171;27;20195;-70
2021/06/09 04:34:05;;;;;;;24.67;11.53;;;15.10;1.00;;;;;;5154662;27;20215;-70
2021/06/09 04:36:52;;;;;;;27.67;11.40;;;15.20;1.00;;;;;;5155106;27;20198;-70
2021/06/09 04:39:40;;;;;;;25.63;11.40;;;15.20;1.00;;;;;;5154753;27;21022;-70
2021/06/09 04:42:27;;;;;;;24.17;11.70;;;15.30;1.00;;;;;;5154544;27;20224;-70
2021/06/09 04:45:16;;;;;;;18.40;10.80;;;15.40;1.00;;;;;;5155226;27;20200;-70
2021/06/09 04:48:04;;;;;;;24.07;10.53;;;15.50;1.00;;;;;;5154697;27;20818;-70
2021/06/09 04:50:51;;;;;;;16.20;9.77;;;15.60;1.00;;;;;;5154984;27;20199;-70
2021/06/09 04:53:38;;;;;;;17.67;8.90;;;15.70;1.00;;;;;;5154241;27;20362;-70
2021/06/09 04:56:25;;;;;;;13.87;7.80;;;15.80;1.00;;;;;;5155467;27;20277;-70
2021/06/09 04:59:12;;;;;;;21.13;8.40;;;15.90;1.00;;;;;;5155793;27;20234;-70
2021/06/09 05:02:00;;;;;;;12.97;7.17;;;16.20;1.00;;;;;;5154735;27;20193;-70
2021/06/09 05:04:47;;;;;;;14.73;6.77;;;16.30;1.00;;;;;;5154834;27;20253;-70
2021/06/09 05:07:34;;;;;;;10.90;6.67;;;16.50;1.00;;;;;;5154587;27;20275;-70
2021/06/09 05:10:21;;;;;;;16.40;8.40;;;16.80;1.00;;;;;;5155540;27;20226;-70
2021/06/09 05:13:11;;;;;;;17.30;9.10;;;17.00;1.00;;;;;;5154617;27;20198;-70
2021/06/09 05:16:00;;;;;;;23.60;9.43;;;17.10;1.00;;;;;;5154676;27;20287;-70
2021/06/09 05:18:53;;;;;;;16.63;9.77;;;17.20;1.00;;;;;;5155036;27;20616;-70
2021/06/09 05:21:40;;;;;;;16.00;9.50;;;17.30;1.00;;;;;;5154833;27;20562;-70
2021/06/09 05:24:27;;;;;;;18.17;10.10;;;17.40;1.00;;;;;;5156343;27;20219;-70
2021/06/09 05:27:15;;;;;;;25.67;10.77;;;17.50;1.00;;;;;;5158663;27;20615;-70
2021/06/09 05:30:03;;;;;;;19.00;10.53;;;17.50;1.00;;;;;;5158971;27;20192;-70
2021/06/09 05:32:50;;;;;;;18.30;10.37;;;17.50;1.00;;;;;;5158172;27;20199;-70
2021/06/09 05:35:39;;;;;;;22.20;11.70;;;17.60;1.00;;;;;;5158757;27;20228;-70
2021/06/09 05:38:26;;;;;;;30.17;10.77;;;17.70;1.00;;;;;;5158937;27;20525;-70
2021/06/09 05:41:13;;;;;;;18.70;10.70;;;17.70;1.00;;;;;;5154942;27;20242;-70
2021/06/09 05:44:00;;;;;;;20.20;11.23;;;17.80;1.00;;;;;;5160928;27;20625;-70
2021/06/09 05:46:47;;;;;;;22.60;11.30;;;17.90;1.00;;;;;;5173098;27;20909;-70
2021/06/09 05:49:34;;;;;;;29.23;12.23;;;17.90;1.00;;;;;;5162710;27;20199;-70
2021/06/09 05:52:26;;;;;;;21.07;11.77;;;17.90;1.00;;;;;;5158573;27;20198;-70
2021/06/09 05:55:33;;;;;;;23.20;11.53;;;18.10;1.00;;;;;;5159579;27;20652;-70
2021/06/09 05:58:36;;;;;;;19.80;10.73;;;18.20;1.00;;;;;;5169871;27;20189;-70
2021/06/09 06:01:24;;;;;;;21.20;10.83;;;18.30;1.00;;;;;;5157438;27;20220;-70
2021/06/09 06:04:11;;;;;;;22.00;11.03;;;18.30;1.00;;;;;;5167466;27;20205;-70
2021/06/09 06:06:58;;;;;;;17.83;11.10;;;18.40;1.00;;;;;;5173563;27;20205;-70
2021/06/09 06:09:46;;;;;;;23.13;10.87;;;18.60;1.00;;;;;;5177519;27;20196;-70
2021/06/09 06:12:33;;;;;;;22.00;10.43;;;18.70;1.00;;;;;;5176616;27;20551;-70
2021/06/09 06:15:20;;;;;;;19.60;10.37;;;18.80;1.00;;;;;;5177623;27;20214;-70
2021/06/09 06:18:07;;;;;;;20.10;10.43;;;18.90;1.00;;;;;;5174525;27;20221;-70
2021/06/09 06:20:54;;;;;;;15.23;9.40;;;19.10;1.00;;;;;;5177237;27;20660;-70
2021/06/09 06:23:41;;;;;;;17.17;9.30;;;19.30;1.00;;;;;;5178145;27;20230;-70
2021/06/09 06:26:29;;;;;;;17.07;9.23;;;19.50;1.00;;;;;;5170372;27;20227;-70
2021/06/09 06:29:16;;;;;;;14.77;7.93;;;19.60;1.00;;;;;;5176724;27;20216;-70
2021/06/09 06:32:05;;;;;;;16.07;9.10;;;19.80;1.00;;;;;;5171671;27;20188;-70
2021/06/09 06:34:52;;;;;;;18.60;8.63;;;19.90;1.00;;;;;;5167724;27;20200;-69
2021/06/09 06:37:39;;;;;;;17.00;10.27;;;20.00;1.00;;;;;;5177416;27;20258;-70
2021/06/09 06:40:28;;;;;;;17.67;9.03;;;20.10;1.00;;;;;;5171988;27;20231;-70
2021/06/09 06:43:16;;;;;;;15.47;9.50;;;20.30;1.00;;;;;;5177527;27;20540;-70
2021/06/09 06:46:03;;;;;;;15.70;9.20;;;20.30;1.00;;;;;;5177113;27;20216;-70
2021/06/09 06:48:52;;;;;;;16.30;8.73;;;20.30;1.00;;;;;;5177125;27;20282;-70
2021/06/09 06:51:39;;;;;;;18.90;9.03;;;20.50;1.00;;;;;;5176235;27;20192;-70
2021/06/09 06:54:26;;;;;;;19.93;9.43;;;20.60;1.00;;;;;;5177135;27;20228;-71
2021/06/09 06:57:13;;;;;;;19.80;9.07;;;20.80;1.00;;;;;;5176726;27;20643;-70
2021/06/09 07:00:05;;;;;;;17.33;9.67;;;20.90;1.00;;;;;;5176244;27;20315;-70
2021/06/09 07:02:53;;;;;;;18.57;8.60;;;21.10;1.00;;;;;;5168188;27;20562;-72
2021/06/09 07:05:40;;;;;;;16.23;9.30;;;21.10;1.00;;;;;;5176091;27;20196;-72
2021/06/09 07:08:27;;;;;;;15.00;8.57;;;21.00;99.90;;;;;;5176567;27;20192;-72
2021/06/09 07:11:14;;;;;;;11.90;7.17;;;21.00;99.90;;;;;;5168667;27;20207;-72
2021/06/09 07:14:01;;;;;;;10.90;5.20;;;21.10;99.90;;;;;;5174135;27;20197;-73
2021/06/09 07:16:50;;;;;;;9.17;4.23;;;21.40;99.90;;;;;;5173217;27;20619;-72
2021/06/09 07:19:37;;;;;;;7.53;4.00;;;21.70;1.00;;;;;;5176741;27;20273;-72
2021/06/09 07:22:24;;;;;;;6.43;3.77;;;22.00;99.90;;;;;;5170499;27;20572;-72
2021/06/09 07:25:11;;;;;;;6.03;4.03;;;22.40;1.00;;;;;;5175718;27;20201;-72
2021/06/09 07:28:00;;;;;;;7.50;4.50;;;22.70;1.00;;;;;;5175720;27;20301;-73
2021/06/09 07:30:50;;;;;;;6.27;3.57;;;23.10;1.00;;;;;;5162912;27;20192;-76
2021/06/09 07:33:39;;;;;;;5.57;3.90;;;23.40;56.70;;;;;;5176487;27;20247;-72
2021/06/09 07:36:29;;;;;;;6.33;3.97;;;23.80;99.90;;;;;;5171288;27;20280;-71
2021/06/09 07:39:20;;;;;;;6.20;4.10;;;23.70;99.90;;;;;;5176091;27;20197;-71
2021/06/09 07:42:09;;;;;;;8.40;3.80;;;24.00;1.00;;;;;;5175616;27;20682;-71
2021/06/09 07:44:58;;;;;;;7.07;3.83;;;24.20;99.90;;;;;;5175791;27;20190;-71
2021/06/09 07:47:46;;;;;;;5.33;3.57;;;24.50;99.90;;;;;;5174826;27;20255;-71
2021/06/09 07:54:17;;;;;;;9.13;3.40;;;24.70;1.00;;;;;;5163833;27;20197;-71
2021/06/09 07:57:06;;;;;;;4.97;2.77;;;24.80;1.00;;;;;;5176288;27;20214;-72
2021/06/09 07:59:53;;;;;;;19.20;11.97;;;25.10;1.00;;;;;;5174861;27;20204;-70
2021/06/09 08:02:41;;;;;;;5.43;3.40;;;25.40;99.90;;;;;;5176036;27;20243;-72
2021/06/09 08:05:28;;;;;;;6.07;3.00;;;25.60;99.90;;;;;;5176164;27;20189;-71
2021/06/09 08:08:15;;;;;;;4.60;2.67;;;25.50;66.00;;;;;;5174484;27;20189;-71
2021/06/09 08:11:03;;;;;;;8.80;2.90;;;25.30;1.00;;;;;;5175756;27;20238;-71
2021/06/09 08:13:50;;;;;;;4.27;2.80;;;25.30;18.30;;;;;;5175080;27;20204;-72
2021/06/09 08:16:40;;;;;;;4.68;2.85;;;25.60;1.00;;;;;;5173935;27;20246;-71
2021/06/09 08:19:27;;;;;;;3.85;2.78;;;26.00;1.00;;;;;;5174140;27;20197;-71
2021/06/09 08:22:14;;;;;;;6.18;2.65;;;26.50;1.00;;;;;;5174196;27;20262;-70
2021/06/09 08:25:01;;;;;;;7.18;2.80;;;27.00;1.00;;;;;;5173333;27;20197;-71
2021/06/09 08:27:50;;;;;;;4.60;2.47;;;27.30;1.00;;;;;;5174227;27;20205;-71
2021/06/09 08:30:37;;;;;;;7.85;2.20;;;27.50;1.00;;;;;;5175326;27;20201;-71
2021/06/09 08:33:24;;;;;;;3.28;2.15;;;27.50;99.90;;;;;;5175191;27;20189;-71
2021/06/09 08:36:11;;;;;;;3.92;2.33;;;27.60;99.90;;;;;;5174222;27;20279;-71
2021/06/09 08:38:58;;;;;;;9.50;2.60;;;27.90;99.90;;;;;;5174476;27;20264;-71
2021/06/09 08:41:45;;;;;;;4.22;2.38;;;27.70;99.90;;;;;;5165670;27;20339;-72
2021/06/09 08:44:39;;;;;;;5.07;2.22;;;27.60;99.90;;;;;;5175031;27;20204;-73
2021/06/09 08:47:26;;;;;;;6.88;2.28;;;27.60;99.90;;;;;;5168384;27;20300;-73
2021/06/09 08:50:13;;;;;;;5.82;2.38;;;27.20;69.90;;;;;;5174308;27;20181;-72
2021/06/09 08:53:00;;;;;;;3.42;2.33;;;26.90;82.10;;;;;;5174903;27;20197;-73
2021/06/09 08:55:47;;;;;;;2.42;2.22;;;26.30;46.10;;;;;;5175059;27;20204;-72
2021/06/09 08:58:35;;;;;;;4.88;2.50;;;26.20;95.80;;;;;;5174267;27;20212;-73
2021/06/09 09:01:23;;;;;;;4.00;2.58;;;25.90;99.90;;;;;;5174130;27;20206;-74
2021/06/09 09:04:10;;;;;;;8.63;3.30;;;25.00;99.90;;;;;;5174491;27;20204;-71
2021/06/09 09:06:57;;;;;;;5.60;3.13;;;24.50;99.90;;;;;;5174121;27;20231;-72
2021/06/09 09:09:44;;;;;;;5.83;3.70;;;24.00;99.90;;;;;;5172383;27;20657;-71
2021/06/09 09:12:33;;;;;;;4.83;3.63;;;23.60;99.90;;;;;;5174142;27;20188;-71
2021/06/09 09:15:21;;;;;;;11.43;3.57;;;23.50;99.90;;;;;;5171627;27;20249;-72
2021/06/09 09:18:10;;;;;;;3.87;3.27;;;23.30;99.90;;;;;;5173921;27;20197;-72
2021/06/09 09:20:57;;;;;;;4.77;3.50;;;23.20;99.90;;;;;;5173430;27;20244;-72
2021/06/09 09:23:47;;;;;;;5.63;3.43;;;23.10;99.90;;;;;;5167631;27;20197;-71
2021/06/09 09:26:35;;;;;;;5.20;3.43;;;23.30;99.90;;;;;;5173902;27;20281;-70
2021/06/09 09:29:22;;;;;;;5.63;3.30;;;23.40;99.90;;;;;;5173923;27;20195;-72
2021/06/09 09:32:09;;;;;;;6.27;3.40;;;23.90;99.90;;;;;;5174495;27;20204;-72
2021/06/09 09:35:06;;;;;;;6.27;3.50;;;24.10;99.90;;;;;;5164242;27;20194;-71
2021/06/09 09:38:09;;;;;;;4.80;3.20;;;24.20;99.90;;;;;;5174685;27;20205;-72
2021/06/09 09:41:00;;;;;;;4.87;3.57;;;24.50;99.90;;;;;;5173076;27;20216;-70
2021/06/09 09:43:52;;;;;;;4.03;3.10;;;24.70;99.90;;;;;;5166515;27;20224;-72
2021/06/09 09:46:52;;;;;;;5.73;3.13;;;24.60;99.90;;;;;;5173593;27;20217;-72
2021/06/09 09:49:39;;;;;;;5.87;2.93;;;24.60;99.90;;;;;;5174116;27;20211;-73
2021/06/09 09:52:28;;;;;;;11.07;3.87;;;24.50;99.90;;;;;;5173542;27;20271;-72
2021/06/09 09:55:15;;;;;;;5.93;3.40;;;24.40;99.90;;;;;;5174137;27;20679;-72
2021/06/09 09:58:07;;;;;;;7.10;3.43;;;24.30;99.90;;;;;;5167774;27;20193;-73
2021/06/09 10:01:09;;;;;;;7.70;3.20;;;24.20;99.90;;;;;;5173910;27;20217;-71
2021/06/09 10:03:57;;;;;;;4.37;3.40;;;24.20;99.90;;;;;;5174475;27;20205;-73
2021/06/09 10:06:45;;;;;;;4.60;3.23;;;24.20;99.90;;;;;;5174005;27;20196;-73
2021/06/09 10:09:39;;;;;;;5.07;3.20;;;24.20;99.90;;;;;;5173673;27;20266;-73
2021/06/09 10:12:26;;;;;;;7.37;3.57;;;24.20;99.90;;;;;;5176999;27;20181;-72
2021/06/09 10:15:14;;;;;;;5.43;3.50;;;24.20;1.00;;;;;;5178003;27;20213;-73
2021/06/09 10:18:14;;;;;;;5.97;3.37;;;24.90;1.00;;;;;;5177143;27;20211;-72
2021/06/09 10:21:11;;;;;;;3.73;3.10;;;25.30;99.90;;;;;;5173282;27;20300;-73
2021/06/09 10:24:04;;;;;;;3.63;3.17;;;25.40;99.90;;;;;;5177635;27;20189;-73
2021/06/09 10:26:55;;;;;;;3.43;3.10;;;25.50;99.90;;;;;;5176778;27;20197;-73
2021/06/09 10:29:42;;;;;;;5.70;3.10;;;25.50;99.90;;;;;;5177928;27;20265;-73
2021/06/09 10:32:31;;;;;;;4.40;3.35;;;25.50;99.90;;;;;;5176667;27;20189;-73
2021/06/09 10:35:19;;;;;;;5.82;3.08;;;25.50;99.90;;;;;;5177257;27;20648;-74
2021/06/09 10:38:06;;;;;;;3.63;3.23;;;25.40;99.90;;;;;;5177356;27;20197;-73
2021/06/09 10:40:53;;;;;;;7.20;4.03;;;25.30;99.90;;;;;;5177128;27;20567;-72
2021/06/09 10:43:43;;;;;;;8.73;3.72;;;25.20;99.90;;;;;;5167362;27;20551;-73
2021/06/09 10:46:31;;;;;;;4.88;3.53;;;25.10;99.90;;;;;;5171021;27;20220;-73
2021/06/09 10:49:19;;;;;;;9.63;3.20;;;25.00;99.90;;;;;;5172821;27;20317;-73
2021/06/09 10:52:07;;;;;;;13.50;3.40;;;25.00;99.90;;;;;;5177131;27;20226;-73
2021/06/09 10:54:54;;;;;;;3.22;2.92;;;25.60;99.90;;;;;;5176476;27;20221;-72
2021/06/09 10:57:41;;;;;;;7.47;3.40;;;26.60;99.90;;;;;;5177354;27;20339;-72
2021/06/09 11:00:29;;;;;;;7.05;3.50;;;27.50;99.90;;;;;;5170515;27;20586;-72
2021/06/09 11:03:16;;;;;;;4.82;2.97;;;27.70;99.90;;;;;;5176626;27;20207;-73
2021/06/09 11:06:04;;;;;;;21.58;3.80;;;27.80;99.90;;;;;;5169826;27;20193;-72
2021/06/09 11:08:51;;;;;;;9.00;2.80;;;27.80;99.90;;;;;;5176343;27;20201;-72
2021/06/09 11:11:38;;;;;;;6.65;3.03;;;27.70;99.90;;;;;;5170115;27;20185;-71
2021/06/09 11:14:26;;;;;;;9.82;3.45;;;27.30;99.90;;;;;;5176502;27;20189;-71
2021/06/09 11:17:14;;;;;;;6.15;3.05;;;26.90;35.30;;;;;;5169479;27;20512;-73
2021/06/09 11:20:14;;;;;;;4.50;2.92;;;26.60;71.00;;;;;;5172415;27;20228;-75
2021/06/09 11:23:02;;;;;;;6.40;3.67;;;26.70;99.90;;;;;;5156516;27;20194;-71
2021/06/09 11:25:49;;;;;;;5.38;3.17;;;26.40;99.90;;;;;;5176245;27;20566;-72
2021/06/09 11:28:38;;;;;;;6.43;3.20;;;26.40;99.90;;;;;;5176585;27;20197;-72
2021/06/09 11:31:25;;;;;;;7.35;3.30;;;26.50;99.90;;;;;;5168986;27;20185;-71
2021/06/09 11:34:14;;;;;;;5.55;2.88;;;26.80;99.90;;;;;;5175079;27;20631;-71
2021/06/09 11:37:09;;;;;;;6.60;2.80;;;27.70;99.90;;;;;;5176431;27;20663;-71
2021/06/09 11:39:59;;;;;;;3.47;2.42;;;28.20;21.30;;;;;;5169774;27;20190;-71
2021/06/09 11:43:06;;;;;;;5.22;2.72;;;28.70;1.00;;;;;;5174884;27;20647;-71
2021/06/09 11:45:54;;;;;;;6.55;2.70;;;29.20;1.00;;;;;;5172598;27;20201;-71
2021/06/09 11:48:45;;;;;;;4.95;2.67;;;29.90;1.00;;;;;;5175528;27;20201;-71
2021/06/09 11:51:36;;;;;;;4.60;2.63;;;29.80;1.00;;;;;;5175213;27;20648;-71
2021/06/09 11:54:26;;;;;;;4.65;2.58;;;29.90;1.00;;;;;;5169738;27;20225;-72
2021/06/09 11:57:18;;;;;;;4.93;2.97;;;30.30;1.00;;;;;;5175683;27;20216;-71
2021/06/09 12:00:07;;;;;;;3.65;2.88;;;30.20;1.00;;;;;;5169162;27;20193;-71
2021/06/09 12:03:21;;;;;;;5.97;3.00;;;30.60;1.00;;;;;;5174648;27;20588;-71
2021/06/09 12:06:16;;;;;;;5.07;3.15;;;31.10;1.00;;;;;;5175303;27;20189;-70
2021/06/09 12:09:05;;;;;;;4.40;2.70;;;31.90;1.00;;;;;;5175412;27;20197;-71
2021/06/09 12:11:53;;;;;;;3.95;2.60;;;32.00;1.00;;;;;;5174852;27;20193;-71
2021/06/09 12:14:41;;;;;;;3.38;2.58;;;31.00;1.00;;;;;;5174974;27;20193;-70
2021/06/09 12:17:28;;;;;;;6.55;2.97;;;30.70;1.00;;;;;;5174893;27;20257;-71
2021/06/09 12:20:16;;;;;;;5.18;3.30;;;29.70;1.00;;;;;;5171656;27;20195;-71
2021/06/09 12:23:04;;;;;;;4.88;3.13;;;28.60;1.00;;;;;;5175723;27;20189;-71
2021/06/09 12:25:52;;;;;;;8.48;3.15;;;28.00;1.00;;;;;;5175560;27;20481;-71
2021/06/09 12:28:39;;;;;;;4.72;3.20;;;27.80;1.00;;;;;;5174964;27;20197;-71
2021/06/09 12:31:26;;;;;;;8.38;3.90;;;27.40;1.00;;;;;;5175062;27;20185;-72
2021/06/09 12:34:28;;;;;;;10.23;3.50;;;27.20;1.00;;;;;;5165678;27;20276;-72
2021/06/09 12:37:15;;;;;;;8.45;3.30;;;27.00;1.00;;;;;;5175252;27;20655;-70
2021/06/09 12:40:05;;;;;;;4.85;3.25;;;26.90;1.00;;;;;;5174239;27;20605;-70
2021/06/09 12:42:55;;;;;;;7.15;3.40;;;27.20;1.00;;;;;;5174551;27;20205;-71
2021/06/09 12:45:43;;;;;;;6.18;3.35;;;27.20;1.00;;;;;;5172222;27;20197;-70
2021/06/09 12:48:30;;;;;;;12.13;3.63;;;27.20;1.00;;;;;;5174494;27;20651;-71
2021/06/09 12:51:17;;;;;;;6.35;3.63;;;26.60;1.00;;;;;;5168569;27;20193;-71
2021/06/09 12:54:13;;;;;;;7.32;3.90;;;25.90;1.00;;;;;;5174461;27;20865;-71
2021/06/09 12:57:00;;;;;;;7.53;3.92;;;24.90;1.00;;;;;;5170056;27;20644;-72
2021/06/09 12:59:49;;;;;;;6.22;4.40;;;24.50;1.00;;;;;;5172386;27;20192;-73
2021/06/09 13:02:36;;;;;;;5.57;3.90;;;24.10;1.00;;;;;;5173828;27;20223;-73
2021/06/09 13:05:23;;;;;;;12.20;4.33;;;24.10;1.00;;;;;;5166316;27;20673;-73
2021/06/09 13:08:11;;;;;;;4.87;4.17;;;24.20;1.00;;;;;;5174849;27;20196;-71
2021/06/09 13:11:09;;;;;;;7.50;3.83;;;24.30;1.00;;;;;;5174520;27;20276;-73
2021/06/09 13:13:57;;;;;;;11.97;4.23;;;24.20;1.00;;;;;;5173965;27;20534;-69
2021/06/09 13:16:45;;;;;;;9.03;4.30;;;24.40;1.00;;;;;;5174610;27;20200;-70
2021/06/09 13:19:33;;;;;;;6.80;4.30;;;25.10;1.00;;;;;;5172666;27;20201;-70
2021/06/09 13:22:20;;;;;;;7.87;4.40;;;25.80;1.00;;;;;;5173942;27;20737;-70
2021/06/09 13:25:07;;;;;;;6.07;3.93;;;26.40;1.00;;;;;;5173037;27;20631;-69
2021/06/09 13:27:55;;;;;;;6.30;3.80;;;26.60;1.00;;;;;;5174127;27;20200;-70
2021/06/09 13:30:42;;;;;;;8.82;3.80;;;26.70;1.00;;;;;;5173167;27;20200;-71
2021/06/09 13:33:30;;;;;;;4.88;3.60;;;26.90;1.00;;;;;;5173887;27;20197;-69
2021/06/09 13:36:17;;;;;;;6.50;3.40;;;26.70;1.00;;;;;;5174440;27;20205;-69
2021/06/09 13:39:06;;;;;;;9.25;4.03;;;26.80;1.00;;;;;;5173636;27;20269;-69
2021/06/09 13:41:53;;;;;;;9.27;4.00;;;26.80;1.00;;;;;;5173569;27;20240;-70
2021/06/09 13:44:41;;;;;;;5.88;3.88;;;26.80;1.00;;;;;;5156562;27;20612;-70
2021/06/09 13:47:31;;;;;;;6.20;3.58;;;26.60;1.00;;;;;;5177343;27;20687;-70
2021/06/09 13:50:20;;;;;;;4.32;3.28;;;26.40;1.00;;;;;;5171127;27;20245;-69
2021/06/09 13:53:09;;;;;;;6.03;3.50;;;26.60;1.00;;;;;;5178355;27;20189;-69
2021/06/09 13:55:56;;;;;;;7.57;3.60;;;26.40;1.00;;;;;;5177561;27;20197;-71
2021/06/09 13:58:43;;;;;;;6.80;3.80;;;26.30;1.00;;;;;;5157644;27;20218;-70
2021/06/09 14:01:36;;;;;;;5.55;3.63;;;26.20;1.00;;;;;;5158330;27;20527;-72
2021/06/09 14:04:25;;;;;;;10.50;3.70;;;26.30;1.00;;;;;;5157433;27;20194;-70
2021/06/09 14:07:27;;;;;;;4.82;3.60;;;26.20;1.00;;;;;;5175396;27;20193;-71
2021/06/09 14:10:36;;;;;;;8.18;3.53;;;26.50;1.00;;;;;;5177289;27;20195;-70
2021/06/09 14:13:26;;;;;;;3.55;3.17;;;27.00;1.00;;;;;;5178026;27;20643;-70
2021/06/09 14:16:13;;;;;;;3.83;3.28;;;27.10;1.00;;;;;;5177815;27;20193;-70
2021/06/09 14:19:06;;;;;;;7.80;3.65;;;26.70;1.00;;;;;;5169733;27;20285;-71
2021/06/09 14:21:53;;;;;;;4.70;3.08;;;26.40;1.00;;;;;;5178287;27;20209;-70
2021/06/09 14:24:42;;;;;;;6.45;3.28;;;26.70;1.00;;;;;;5178354;27;20204;-69
2021/06/09 14:27:29;;;;;;;6.22;3.42;;;26.80;1.00;;;;;;5177733;27;20205;-71
2021/06/09 14:30:17;;;;;;;10.68;3.58;;;27.50;1.00;;;;;;5177321;27;21778;-70
2021/06/09 14:33:25;;;;;;;4.32;3.55;;;27.80;1.00;;;;;;5177687;27;20332;-70
2021/06/09 14:36:17;;;;;;;5.85;3.28;;;27.90;1.00;;;;;;5177349;27;20662;-71
2021/06/09 14:39:05;;;;;;;7.75;3.80;;;28.00;1.00;;;;;;5177000;27;20189;-71
2021/06/09 14:41:55;;;;;;;5.00;3.60;;;27.80;1.00;;;;;;5177394;27;20224;-70
2021/06/09 14:44:43;;;;;;;7.72;3.47;;;28.30;1.00;;;;;;5173361;27;20201;-70
2021/06/09 14:47:52;;;;;;;6.10;3.92;;;27.90;1.00;;;;;;5176790;27;20634;-71